Time;durP1;ratioP1;P1;durP2;ratioP2;P2;SDS_P1;SDS_P2;PMS_P1;PMS_P2;Temp;Humidity;BMP_temperature;BMP_pressure;BME280_temperature;BME280_humidity;BME280_pressure;Samples;Min_cycle;Max_cycle;Signal;HPM_P1;HPM_P2
2022/12/20 00:01:34;;;;;;;24.83;4.03;;;12.40;99.90;;;;;;5019920;28;20052;-76
2022/12/20 00:04:04;;;;;;;26.30;4.10;;;12.70;99.90;;;;;;5017948;28;20052;-77
2022/12/20 00:06:35;;;;;;;22.33;3.65;;;12.30;99.90;;;;;;5036348;28;20057;-76
2022/12/20 00:09:05;;;;;;;27.15;4.18;;;12.30;99.90;;;;;;5036515;28;20050;-76
2022/12/20 00:11:34;;;;;;;27.05;3.85;;;12.30;99.90;;;;;;5017856;28;20484;-77
2022/12/20 00:14:01;;;;;;;26.45;3.80;;;12.60;99.90;;;;;;5036482;28;20050;-76
2022/12/20 00:16:29;;;;;;;29.02;3.85;;;12.30;99.90;;;;;;5018082;28;20037;-77
2022/12/20 00:19:02;;;;;;;27.55;3.85;;;12.50;99.90;;;;;;5019985;28;20038;-77
2022/12/20 00:21:31;;;;;;;26.42;3.50;;;12.30;99.90;;;;;;5019046;28;20065;-76
2022/12/20 00:23:59;;;;;;;22.45;3.63;;;12.30;99.90;;;;;;5035344;28;20381;-77
2022/12/20 00:26:28;;;;;;;;;;;12.30;99.90;;;;;;5019190;28;20049;-76
2022/12/20 00:28:56;;;;;;;23.27;4.43;;;12.30;99.90;;;;;;5018463;28;19921;-77
2022/12/20 00:31:25;;;;;;;27.05;3.72;;;12.20;99.90;;;;;;5034756;28;20479;-77
2022/12/20 00:33:54;;;;;;;20.70;3.70;;;12.30;99.90;;;;;;5018931;28;20049;-77
2022/12/20 00:36:25;;;;;;;27.10;3.90;;;12.20;99.90;;;;;;5035912;28;20041;-77
2022/12/20 00:38:53;;;;;;;23.80;3.25;;;12.20;99.90;;;;;;5017423;28;20049;-77
2022/12/20 00:41:24;;;;;;;21.50;3.17;;;12.20;99.90;;;;;;5002495;28;20049;-76
2022/12/20 00:43:52;;;;;;;18.92;3.20;;;12.20;99.90;;;;;;5017374;28;20530;-77
2022/12/20 00:46:23;;;;;;;19.23;2.75;;;12.20;99.90;;;;;;5019182;28;20058;-77
2022/12/20 00:48:53;;;;;;;20.95;3.30;;;12.30;99.90;;;;;;5019027;28;20488;-77
2022/12/20 00:51:24;;;;;;;23.30;3.08;;;12.20;99.90;;;;;;5001096;28;20056;-78
2022/12/20 00:53:53;;;;;;;17.80;2.85;;;12.30;99.90;;;;;;5017970;28;20061;-78
2022/12/20 00:56:21;;;;;;;19.17;2.92;;;12.30;99.90;;;;;;5018026;28;20041;-77
2022/12/20 00:58:49;;;;;;;19.67;2.75;;;12.30;99.90;;;;;;4984729;28;20487;-78
2022/12/20 01:01:22;;;;;;;18.80;3.25;;;12.20;99.90;;;;;;5035426;28;20041;-77
2022/12/20 01:03:51;;;;;;;16.60;2.78;;;12.30;99.90;;;;;;5033789;28;20041;-78
2022/12/20 01:06:19;;;;;;;15.13;2.65;;;12.30;99.90;;;;;;5018503;28;20046;-76
2022/12/20 01:08:49;;;;;;;18.75;2.90;;;12.30;99.90;;;;;;5017853;28;20480;-77
2022/12/20 01:11:23;;;;;;;20.60;3.17;;;12.20;99.90;;;;;;5017014;28;20056;-77
2022/12/20 01:13:53;;;;;;;21.02;3.35;;;12.40;99.90;;;;;;5001786;28;20053;-77
2022/12/20 01:16:24;;;;;;;17.20;2.85;;;12.40;99.90;;;;;;5035166;28;20049;-77
2022/12/20 01:18:52;;;;;;;18.17;3.53;;;12.40;99.90;;;;;;5016794;28;20045;-77
2022/12/20 01:21:21;;;;;;;22.33;3.45;;;12.40;99.90;;;;;;5034894;28;20056;-76
2022/12/20 01:23:49;;;;;;;20.48;3.35;;;12.30;99.90;;;;;;5000804;28;20045;-76
2022/12/20 01:26:19;;;;;;;22.15;3.90;;;12.50;99.90;;;;;;5001717;28;20072;-77
2022/12/20 01:28:50;;;;;;;23.73;3.75;;;12.50;99.90;;;;;;5035211;28;20049;-77
2022/12/20 01:31:19;;;;;;;14.18;3.40;;;12.40;99.90;;;;;;5000481;28;20045;-76
2022/12/20 01:33:48;;;;;;;22.00;3.47;;;12.90;99.90;;;;;;5017434;28;20053;-77
2022/12/20 01:36:19;;;;;;;19.17;3.17;;;12.50;99.90;;;;;;5018097;28;20372;-77
2022/12/20 01:38:46;;;;;;;18.50;3.33;;;12.50;99.90;;;;;;5033694;28;20041;-77
2022/12/20 01:41:21;;;;;;;17.98;3.60;;;12.50;99.90;;;;;;5017718;28;20038;-78
2022/12/20 01:43:54;;;;;;;17.63;3.33;;;12.50;99.90;;;;;;5033648;28;20044;-77
2022/12/20 01:46:25;;;;;;;27.00;3.70;;;12.50;99.90;;;;;;5017419;28;20373;-77
2022/12/20 01:48:54;;;;;;;22.05;3.85;;;12.50;99.90;;;;;;5017806;28;20053;-77
2022/12/20 01:51:23;;;;;;;29.50;4.10;;;12.90;99.90;;;;;;5033607;28;20511;-76
2022/12/20 01:53:56;;;;;;;23.88;3.72;;;12.80;99.90;;;;;;5017196;28;20396;-77
2022/12/20 01:56:24;;;;;;;24.58;4.30;;;12.70;99.90;;;;;;5017322;28;20045;-76
2022/12/20 01:58:53;;;;;;;18.67;3.17;;;12.50;99.90;;;;;;4999660;28;20076;-77
2022/12/20 02:01:23;;;;;;;22.88;4.20;;;12.60;99.90;;;;;;5017216;28;20053;-77
2022/12/20 02:03:53;;;;;;;20.27;3.78;;;12.60;99.90;;;;;;5033765;28;20050;-77
2022/12/20 02:06:24;;;;;;;26.50;4.32;;;12.60;99.90;;;;;;5017151;28;20037;-78
2022/12/20 02:08:55;;;;;;;26.42;3.78;;;12.60;99.90;;;;;;5034440;28;20041;-78
2022/12/20 02:11:45;;;;;;;21.50;4.13;;;12.60;99.90;;;;;;5016149;28;20383;-77
2022/12/20 02:14:15;;;;;;;23.88;4.50;;;12.60;99.90;;;;;;5017434;28;20041;-77
2022/12/20 02:17:11;;;;;;;27.48;4.85;;;12.70;99.90;;;;;;5037187;28;20045;-77
2022/12/20 02:20:10;;;;;;;27.92;4.43;;;12.70;99.90;;;;;;5021278;28;20471;-76
2022/12/20 02:23:01;;;;;;;23.45;4.07;;;12.70;99.90;;;;;;5038692;28;20374;-78
2022/12/20 02:25:56;;;;;;;17.98;3.00;;;12.60;99.90;;;;;;5037395;28;20046;-78
2022/12/20 02:28:29;;;;;;;22.48;3.38;;;12.60;99.90;;;;;;5020851;28;20052;-77
2022/12/20 02:30:59;;;;;;;18.45;3.25;;;12.60;99.90;;;;;;5037111;28;20057;-78
2022/12/20 02:33:27;;;;;;;15.77;3.20;;;12.70;99.90;;;;;;5021208;28;20054;-78
2022/12/20 02:35:55;;;;;;;18.00;3.40;;;12.60;99.90;;;;;;5021103;28;20050;-78
2022/12/20 02:38:33;;;;;;;16.58;3.17;;;12.70;99.90;;;;;;5019648;28;20392;-78
2022/12/20 02:41:10;;;;;;;17.77;3.40;;;12.60;99.90;;;;;;5005142;28;20061;-78
2022/12/20 02:46:29;;;;;;;15.77;3.33;;;12.60;99.90;;;;;;5037938;28;20483;-78
2022/12/20 02:49:03;;;;;;;19.45;3.88;;;12.50;99.90;;;;;;5038240;28;20045;-78
2022/12/20 02:51:32;;;;;;;12.10;2.55;;;12.60;99.90;;;;;;5036816;28;20060;-78
2022/12/20 02:54:01;;;;;;;12.25;2.80;;;12.50;99.90;;;;;;5004062;28;20049;-77
2022/12/20 02:56:41;;;;;;;16.95;2.97;;;12.50;99.90;;;;;;5036775;28;20045;-78
2022/12/20 02:59:35;;;;;;;12.77;3.03;;;12.60;99.90;;;;;;5020221;28;20503;-77
2022/12/20 03:02:04;;;;;;;25.85;4.05;;;12.50;99.90;;;;;;5020582;28;20052;-78
2022/12/20 03:04:36;;;;;;;22.10;3.92;;;12.50;99.90;;;;;;5019522;28;20372;-78
2022/12/20 03:07:07;;;;;;;20.38;4.05;;;12.40;99.90;;;;;;5003810;28;20366;-78
2022/12/20 03:09:38;;;;;;;26.40;4.60;;;12.40;99.90;;;;;;5020048;28;20049;-78
2022/12/20 03:12:07;;;;;;;22.33;4.53;;;12.40;99.90;;;;;;5002985;28;20054;-78
2022/12/20 03:14:39;;;;;;;21.50;4.45;;;12.40;99.90;;;;;;5004137;28;20057;-77
2022/12/20 03:17:09;;;;;;;27.10;4.50;;;12.40;99.90;;;;;;5019162;28;20037;-77
2022/12/20 03:19:37;;;;;;;26.83;4.88;;;12.40;99.90;;;;;;5037249;28;20060;-78
2022/12/20 03:22:05;;;;;;;24.92;4.35;;;12.50;99.90;;;;;;5037410;28;20056;-77
2022/12/20 03:24:33;;;;;;;23.70;4.53;;;12.40;99.90;;;;;;5002386;28;20479;-78
2022/12/20 03:27:05;;;;;;;25.60;4.22;;;12.40;99.90;;;;;;5003447;28;20065;-77
2022/12/20 03:29:33;;;;;;;17.10;4.15;;;12.40;99.90;;;;;;5019917;28;20052;-78
2022/12/20 03:32:00;;;;;;;18.45;4.07;;;12.30;99.90;;;;;;5018754;28;20053;-78
2022/12/20 03:34:28;;;;;;;24.67;4.18;;;12.30;99.90;;;;;;5003449;28;20049;-78
2022/12/20 03:36:56;;;;;;;29.40;4.85;;;12.30;99.90;;;;;;5019167;28;20376;-78
2022/12/20 03:39:24;;;;;;;33.38;4.88;;;12.30;99.90;;;;;;5019574;28;20049;-78
2022/12/20 03:41:53;;;;;;;25.50;4.63;;;12.30;99.90;;;;;;5019744;28;20033;-77
2022/12/20 03:44:20;;;;;;;25.90;4.85;;;12.30;99.90;;;;;;5035753;28;20045;-78
2022/12/20 03:46:49;;;;;;;30.35;4.93;;;12.30;99.90;;;;;;5036922;28;20349;-78
2022/12/20 03:49:17;;;;;;;24.48;4.78;;;12.10;99.90;;;;;;5019421;28;20068;-77
2022/12/20 03:51:49;;;;;;;22.70;4.30;;;12.20;99.90;;;;;;5018413;28;20037;-77
2022/12/20 03:54:17;;;;;;;25.40;4.97;;;12.30;99.90;;;;;;5019466;28;20053;-77
2022/12/20 03:57:06;;;;;;;23.05;4.90;;;12.20;99.90;;;;;;5018225;28;20045;-77
2022/12/20 03:59:34;;;;;;;25.92;5.28;;;12.20;99.90;;;;;;5036477;28;20363;-76
2022/12/20 04:02:04;;;;;;;32.70;5.22;;;12.30;99.90;;;;;;5019760;28;20045;-77
2022/12/20 04:04:33;;;;;;;28.90;4.80;;;12.20;99.90;;;;;;5018001;28;20042;-78
2022/12/20 04:07:01;;;;;;;28.33;5.00;;;12.10;99.90;;;;;;5019479;28;20037;-77
2022/12/20 04:09:28;;;;;;;28.95;4.80;;;12.20;99.90;;;;;;5002874;28;20049;-77
2022/12/20 04:12:03;;;;;;;35.45;5.38;;;12.20;99.90;;;;;;5017833;28;20037;-77
2022/12/20 04:14:33;;;;;;;25.27;5.28;;;12.20;99.90;;;;;;5019497;28;20066;-77
2022/12/20 04:17:00;;;;;;;29.08;5.10;;;12.20;99.90;;;;;;5018091;28;20049;-78
2022/12/20 04:19:28;;;;;;;34.08;5.43;;;12.20;99.90;;;;;;5018780;28;20056;-77
2022/12/20 04:21:57;;;;;;;28.25;4.80;;;12.20;99.90;;;;;;5019004;28;20060;-77
2022/12/20 04:24:42;;;;;;;29.13;5.40;;;12.20;99.90;;;;;;5017609;28;20045;-78
2022/12/20 04:27:19;;;;;;;35.30;5.78;;;12.70;99.90;;;;;;4988016;28;20042;-77
2022/12/20 04:29:46;;;;;;;32.88;6.05;;;12.20;99.90;;;;;;5019180;28;20052;-78
2022/12/20 04:32:20;;;;;;;32.38;5.50;;;12.20;99.90;;;;;;5019045;28;20053;-79
2022/12/20 04:34:48;;;;;;;35.72;5.30;;;12.60;99.90;;;;;;5002194;28;20060;-78
2022/12/20 04:37:17;;;;;;;25.40;5.10;;;13.20;99.90;;;;;;5017152;28;20045;-78
2022/12/20 04:39:49;;;;;;;22.27;5.15;;;12.10;99.90;;;;;;4987248;28;20064;-78
2022/12/20 04:42:20;;;;;;;20.40;5.40;;;12.60;99.90;;;;;;5018940;28;20037;-78
2022/12/20 04:44:49;;;;;;;23.23;4.72;;;12.10;99.90;;;;;;5017335;28;20046;-78
2022/12/20 04:47:23;;;;;;;30.33;5.22;;;12.10;99.90;;;;;;5018254;28;20465;-77
2022/12/20 04:49:52;;;;;;;35.10;6.40;;;12.10;99.90;;;;;;5017043;28;20064;-77
2022/12/20 04:55:14;;;;;;;39.97;6.05;;;12.80;99.90;;;;;;5034850;28;20049;-78
2022/12/20 04:57:41;;;;;;;32.40;5.95;;;12.10;99.90;;;;;;5033463;28;20037;-77
2022/12/20 05:00:10;;;;;;;35.72;6.70;;;12.10;99.90;;;;;;5034564;28;20042;-78
2022/12/20 05:02:42;;;;;;;41.83;7.60;;;12.10;99.90;;;;;;5034779;28;20049;-78
2022/12/20 05:05:14;;;;;;;39.72;7.00;;;12.10;99.90;;;;;;5033343;28;20056;-77
2022/12/20 05:07:47;;;;;;;35.50;6.38;;;12.10;99.90;;;;;;5034689;28;20045;-78
2022/12/20 05:10:15;;;;;;;40.70;6.88;;;12.10;99.90;;;;;;5034137;28;20042;-77
2022/12/20 05:12:44;;;;;;;31.80;6.75;;;12.10;99.90;;;;;;5034476;28;20468;-78
2022/12/20 05:15:19;;;;;;;34.80;6.95;;;12.10;99.90;;;;;;5017886;28;20388;-78
2022/12/20 05:17:47;;;;;;;43.15;6.50;;;12.10;99.90;;;;;;5000823;28;20060;-78
2022/12/20 05:20:15;;;;;;;22.67;4.70;;;13.20;99.90;;;;;;5018177;28;20041;-78
2022/12/20 05:28:21;;;;;;;33.88;6.60;;;12.10;99.90;;;;;;5034407;28;20045;-78
2022/12/20 05:30:48;;;;;;;37.58;6.20;;;12.10;99.90;;;;;;5032841;28;20060;-78
2022/12/20 05:33:16;;;;;;;28.25;6.40;;;12.10;99.90;;;;;;5033910;28;20053;-77
2022/12/20 05:35:44;;;;;;;42.22;6.63;;;12.10;99.90;;;;;;5034835;28;20058;-77
2022/12/20 05:38:14;;;;;;;30.00;5.57;;;12.10;99.90;;;;;;5032894;28;20038;-77
2022/12/20 05:40:42;;;;;;;30.58;5.93;;;12.10;99.90;;;;;;5033867;28;20041;-78
2022/12/20 05:43:11;;;;;;;29.67;5.93;;;12.10;99.90;;;;;;5033686;28;20052;-78
2022/12/20 05:45:48;;;;;;;28.35;6.13;;;12.10;99.90;;;;;;5033791;28;20038;-77
2022/12/20 05:48:20;;;;;;;24.17;5.70;;;12.30;99.90;;;;;;5034175;28;20052;-78
2022/12/20 05:50:48;;;;;;;23.42;5.20;;;12.40;99.90;;;;;;5033408;28;20053;-78
2022/12/20 05:53:23;;;;;;;26.50;5.50;;;12.10;99.90;;;;;;5015675;28;20365;-78
2022/12/20 05:55:54;;;;;;;33.47;5.68;;;12.10;99.90;;;;;;5017669;28;20376;-77
2022/12/20 05:58:27;;;;;;;21.88;5.13;;;12.20;99.90;;;;;;5016216;28;20050;-77
2022/12/20 06:01:01;;;;;;;27.55;5.57;;;12.20;99.90;;;;;;4985375;28;20045;-78
2022/12/20 06:03:31;;;;;;;25.00;5.05;;;12.20;99.90;;;;;;5000776;28;20369;-77
2022/12/20 06:05:59;;;;;;;24.83;4.80;;;11.50;99.90;;;;;;5017533;28;20041;-78
2022/12/20 06:08:31;;;;;;;24.38;4.88;;;12.20;99.90;;;;;;5001007;28;20060;-78
2022/12/20 06:11:03;;;;;;;18.67;4.90;;;12.20;99.90;;;;;;5016190;28;20483;-77
2022/12/20 06:13:36;;;;;;;24.95;4.78;;;12.20;99.90;;;;;;5000862;28;20376;-77
2022/12/20 06:16:03;;;;;;;26.30;5.20;;;12.20;99.90;;;;;;5017458;28;20349;-77
2022/12/20 06:18:32;;;;;;;25.42;5.22;;;12.20;99.90;;;;;;5015862;28;20045;-78
2022/12/20 06:21:02;;;;;;;23.85;4.75;;;12.20;99.90;;;;;;5016990;28;20479;-78
2022/12/20 06:23:33;;;;;;;25.05;4.97;;;12.20;99.90;;;;;;4983305;28;20053;-78
2022/12/20 06:26:10;;;;;;;32.23;5.70;;;12.90;99.90;;;;;;5002349;28;20041;-78
2022/12/20 06:28:51;;;;;;;32.75;5.43;;;12.20;99.90;;;;;;5002088;28;20045;-78
2022/12/20 06:31:24;;;;;;;24.00;5.18;;;12.20;99.90;;;;;;5016029;28;20046;-77
2022/12/20 06:33:53;;;;;;;27.23;5.07;;;12.20;99.90;;;;;;5016841;28;20049;-77
2022/12/20 06:36:24;;;;;;;35.65;5.35;;;12.20;99.90;;;;;;5017226;28;20046;-78
2022/12/20 06:38:57;;;;;;;23.60;5.07;;;12.30;99.90;;;;;;5017591;28;20049;-77
2022/12/20 06:41:24;;;;;;;32.10;5.07;;;10.80;99.90;;;;;;5017044;28;20038;-78
2022/12/20 06:43:53;;;;;;;29.10;5.15;;;12.20;99.90;;;;;;4983455;28;20480;-77
2022/12/20 06:46:20;;;;;;;24.80;4.78;;;12.30;99.90;;;;;;5017004;28;20060;-77
2022/12/20 06:48:49;;;;;;;37.00;5.35;;;14.20;99.90;;;;;;5017169;28;20054;-77
2022/12/20 06:51:18;;;;;;;33.50;5.05;;;12.30;99.90;;;;;;5015782;28;20049;-77
2022/12/20 06:53:46;;;;;;;30.55;5.03;;;12.40;99.90;;;;;;5016494;28;20076;-77
2022/12/20 06:56:13;;;;;;;27.45;4.25;;;12.40;99.90;;;;;;5000718;28;20117;-77
2022/12/20 06:58:41;;;;;;;22.33;4.18;;;12.30;99.90;;;;;;5015442;28;20045;-77
2022/12/20 07:01:09;;;;;;;29.73;4.88;;;12.40;99.90;;;;;;5017539;28;20464;-77
2022/12/20 07:03:36;;;;;;;33.08;4.50;;;12.30;99.90;;;;;;5036720;28;20045;-78
2022/12/20 07:06:04;;;;;;;34.08;4.30;;;12.30;99.90;;;;;;5037847;28;20041;-78
2022/12/20 07:08:31;;;;;;;28.73;4.43;;;12.20;99.90;;;;;;5037659;28;20452;-78
2022/12/20 07:11:09;;;;;;;32.60;4.47;;;12.20;99.90;;;;;;5036316;28;20046;-77
2022/12/20 07:13:42;;;;;;;34.80;4.70;;;9.80;99.90;;;;;;5037734;28;20372;-83
2022/12/20 07:16:18;;;;;;;25.45;3.92;;;12.10;99.90;;;;;;5003608;28;20057;-81
2022/12/20 07:19:20;;;;;;;20.83;4.60;;;13.50;99.90;;;;;;5036185;28;20061;-81
2022/12/20 07:22:13;;;;;;;37.58;4.70;;;12.10;99.90;;;;;;5015638;28;20496;-81
2022/12/20 07:24:58;;;;;;;32.43;4.60;;;12.00;99.90;;;;;;5016365;28;20053;-81
2022/12/20 07:27:31;;;;;;;30.45;4.60;;;12.20;99.90;;;;;;4984409;28;20279;-82
2022/12/20 07:30:07;;;;;;;22.75;4.20;;;12.20;99.90;;;;;;5015104;28;20054;-82
2022/12/20 07:32:57;;;;;;;15.60;2.53;;;11.10;99.90;;;;;;5005479;28;20056;-83
2022/12/20 07:35:29;;;;;;;8.88;1.50;;;12.10;99.90;;;;;;5035195;28;20049;-82
2022/12/20 07:38:06;;;;;;;4.22;0.60;;;12.10;99.90;;;;;;5033084;28;20045;-80
2022/12/20 07:40:44;;;;;;;2.35;0.50;;;12.10;99.90;;;;;;5036405;28;20037;-82
2022/12/20 07:43:14;;;;;;;1.15;0.30;;;12.20;99.90;;;;;;5017992;28;20033;-79
2022/12/20 07:45:56;;;;;;;1.35;0.40;;;11.80;99.90;;;;;;5018868;28;20045;-82
2022/12/20 07:48:26;;;;;;;1.75;0.20;;;11.80;99.90;;;;;;5034853;28;20056;-81
2022/12/20 07:51:33;;;;;;;1.10;0.32;;;11.70;99.90;;;;;;4994133;28;20049;-82
2022/12/20 07:54:22;;;;;;;4.55;0.47;;;11.50;99.90;;;;;;5035959;28;20479;-82
2022/12/20 07:56:58;;;;;;;1.58;0.30;;;11.60;99.90;;;;;;5035538;28;20472;-78
2022/12/20 07:59:30;;;;;;;0.65;0.20;;;11.50;99.90;;;;;;5019270;28;20484;-82
2022/12/20 08:02:17;;;;;;;1.13;0.25;;;11.40;99.90;;;;;;5018816;28;20042;-80
2022/12/20 08:05:08;;;;;;;1.15;0.60;;;11.20;99.90;;;;;;5034971;28;20060;-79
2022/12/20 08:07:38;;;;;;;0.50;0.10;;;11.10;99.90;;;;;;5018939;28;20054;-79
2022/12/20 08:10:13;;;;;;;1.58;0.30;;;11.20;99.90;;;;;;5017740;28;20068;-82
2022/12/20 08:12:48;;;;;;;1.85;0.65;;;10.90;99.90;;;;;;5036043;28;20054;-83
2022/12/20 08:15:39;;;;;;;3.25;0.80;;;10.90;99.90;;;;;;5020895;28;20056;-82
2022/12/20 08:18:06;;;;;;;1.90;0.90;;;10.60;99.90;;;;;;5034921;28;20053;-78
2022/12/20 08:20:34;;;;;;;2.15;1.23;;;10.10;99.90;;;;;;5018381;28;20060;-82
2022/12/20 08:23:04;;;;;;;1.88;0.63;;;10.50;99.90;;;;;;5035808;28;20072;-82
2022/12/20 08:25:33;;;;;;;4.28;0.32;;;10.60;99.90;;;;;;5034786;28;20357;-82
2022/12/20 08:28:10;;;;;;;1.65;0.40;;;10.30;99.90;;;;;;5035361;28;20392;-81
2022/12/20 08:30:40;;;;;;;1.17;0.30;;;12.40;99.90;;;;;;5034751;28;20053;-80
2022/12/20 08:33:16;;;;;;;4.05;0.60;;;9.20;99.90;;;;;;5019396;28;20495;-82
2022/12/20 08:35:55;;;;;;;2.15;0.68;;;11.10;99.90;;;;;;5035569;28;20060;-79
2022/12/20 08:38:27;;;;;;;3.63;1.05;;;8.20;99.90;;;;;;5034569;28;20060;-79
2022/12/20 08:41:00;;;;;;;2.83;0.90;;;11.50;99.90;;;;;;5017674;28;20456;-80
2022/12/20 08:43:28;;;;;;;4.57;0.73;;;11.20;99.90;;;;;;5017203;28;20359;-81
2022/12/20 08:46:44;;;;;;;1.00;0.45;;;10.00;99.90;;;;;;5002192;28;20056;-82
2022/12/20 08:49:18;;;;;;;1.25;0.30;;;10.80;99.90;;;;;;5035328;28;20053;-82
2022/12/20 08:51:50;;;;;;;2.08;0.57;;;9.80;99.90;;;;;;5034659;28;20049;-79
2022/12/20 08:54:19;;;;;;;1.65;0.35;;;9.80;99.90;;;;;;5018259;28;20045;-80
2022/12/20 08:56:56;;;;;;;7.93;0.60;;;10.00;99.90;;;;;;5001925;28;20065;-80
2022/12/20 08:59:25;;;;;;;5.60;0.60;;;9.80;99.90;;;;;;5018209;28;20050;-81
2022/12/20 09:01:55;;;;;;;8.70;0.63;;;9.90;99.90;;;;;;5036261;28;20471;-80
2022/12/20 09:04:26;;;;;;;4.40;0.63;;;10.40;99.90;;;;;;5018047;28;20041;-80
2022/12/20 09:06:56;;;;;;;4.72;0.60;;;9.80;99.90;;;;;;5035650;28;20049;-80
2022/12/20 09:09:23;;;;;;;7.47;1.05;;;11.70;99.90;;;;;;5035545;28;20054;-79
2022/12/20 09:11:51;;;;;;;6.15;1.13;;;9.80;99.90;;;;;;5034418;28;20049;-81
2022/12/20 09:14:22;;;;;;;10.25;0.90;;;9.70;99.90;;;;;;5035348;28;20049;-80
2022/12/20 09:16:50;;;;;;;6.25;0.82;;;9.70;99.90;;;;;;5017747;28;20057;-79
2022/12/20 09:19:20;;;;;;;3.63;1.00;;;9.60;99.90;;;;;;5035831;28;20038;-80
2022/12/20 09:21:47;;;;;;;8.70;1.10;;;9.60;99.90;;;;;;5035605;28;20037;-80
2022/12/20 09:24:18;;;;;;;7.60;1.35;;;7.50;99.90;;;;;;5016982;28;20045;-79
2022/12/20 09:26:45;;;;;;;5.05;0.80;;;10.60;99.90;;;;;;5034995;28;20049;-79
2022/12/20 09:29:21;;;;;;;6.32;0.90;;;9.60;99.90;;;;;;5035221;28;20064;-80
2022/12/20 09:31:58;;;;;;;9.63;0.93;;;11.80;99.90;;;;;;5016957;28;20046;-81
2022/12/20 09:34:29;;;;;;;3.78;0.90;;;9.80;99.90;;;;;;5035550;28;20072;-80
2022/12/20 09:37:00;;;;;;;11.40;1.13;;;10.20;99.90;;;;;;5034200;28;20391;-80
2022/12/20 09:39:51;;;;;;;15.55;1.45;;;10.00;99.90;;;;;;5018330;28;20053;-79
2022/12/20 09:42:24;;;;;;;8.32;1.00;;;11.10;99.90;;;;;;5035311;28;20048;-76
2022/12/20 09:45:11;;;;;;;14.63;2.55;;;9.50;99.90;;;;;;5034079;28;20049;-79
2022/12/20 09:48:20;;;;;;;12.02;1.50;;;10.70;99.90;;;;;;5034666;28;20041;-83
2022/12/20 09:52:23;;;;;;;17.48;1.50;;;9.60;99.90;;;;;;4989979;28;20057;-78
2022/12/20 09:55:19;;;;;;;14.88;1.65;;;9.60;99.90;;;;;;4937626;29;20070;-81
2022/12/20 09:59:24;;;;;;;12.65;1.30;;;7.40;99.90;;;;;;4882171;28;20042;-80
2022/12/20 10:01:51;;;;;;;12.63;1.00;;;9.40;99.90;;;;;;4992288;28;20135;-79
2022/12/20 10:04:54;;;;;;;14.77;1.42;;;9.90;99.90;;;;;;4971324;28;20054;-78
2022/12/20 10:07:56;;;;;;;13.15;1.48;;;9.40;99.90;;;;;;4982252;28;20038;-81
2022/12/20 10:11:21;;;;;;;14.40;1.60;;;9.10;99.90;;;;;;4972240;28;20071;-81
2022/12/20 10:14:34;;;;;;;14.55;1.70;;;9.30;99.90;;;;;;4967869;28;20365;-81
2022/12/20 10:17:36;;;;;;;8.43;1.30;;;9.10;99.90;;;;;;4992875;28;20061;-78
2022/12/20 10:20:33;;;;;;;9.68;1.15;;;9.10;99.90;;;;;;5035476;28;20380;-80
2022/12/20 10:23:38;;;;;;;14.73;1.48;;;9.00;99.90;;;;;;5036406;28;20041;-82
2022/12/20 10:26:11;;;;;;;9.80;1.40;;;9.20;99.90;;;;;;5030182;28;20494;-79
2022/12/20 10:28:42;;;;;;;15.15;1.77;;;9.00;99.90;;;;;;5034275;28;20046;-76
2022/12/20 10:31:20;;;;;;;15.98;2.30;;;9.00;99.90;;;;;;5032269;28;20064;-76
2022/12/20 10:33:48;;;;;;;12.82;1.80;;;9.10;99.90;;;;;;5033797;28;20053;-76
2022/12/20 10:36:35;;;;;;;;;;;11.80;99.90;;;;;;5035804;28;20072;-76
2022/12/20 10:39:09;;;;;;;18.45;1.67;;;9.00;99.90;;;;;;5038046;28;19925;-76
2022/12/20 10:41:39;;;;;;;20.80;2.22;;;9.20;99.90;;;;;;5037657;28;20068;-76
2022/12/20 10:44:28;;;;;;;20.73;2.42;;;9.50;99.90;;;;;;5036816;28;20045;-75
2022/12/20 10:47:44;;;;;;;20.95;2.03;;;9.00;99.90;;;;;;5037781;28;20041;-76
2022/12/20 10:50:26;;;;;;;23.02;2.05;;;8.90;99.90;;;;;;5037030;28;20053;-78
2022/12/20 10:53:36;;;;;;;19.92;2.40;;;9.00;99.90;;;;;;5037497;28;20357;-80
2022/12/20 10:56:35;;;;;;;18.33;2.47;;;9.00;99.90;;;;;;5033780;28;20053;-78
2022/12/20 10:59:17;;;;;;;17.65;2.40;;;8.90;99.90;;;;;;5019602;28;20392;-78
2022/12/20 11:01:50;;;;;;;17.33;2.33;;;10.20;99.90;;;;;;5000921;28;20052;-78
2022/12/20 11:04:39;;;;;;;25.45;2.10;;;9.20;99.90;;;;;;5016551;28;20041;-76
2022/12/20 11:07:26;;;;;;;15.65;1.95;;;7.00;99.90;;;;;;5017529;28;20057;-76
2022/12/20 11:09:57;;;;;;;24.42;2.50;;;9.00;99.90;;;;;;5016562;28;20050;-78
2022/12/20 11:12:27;;;;;;;21.25;2.38;;;9.30;99.90;;;;;;5000979;28;20057;-76
2022/12/20 11:15:20;;;;;;;17.30;2.63;;;11.60;99.90;;;;;;5017207;28;20054;-77
2022/12/20 11:19:23;;;;;;;18.58;2.22;;;9.00;99.90;;;;;;5001525;28;20054;-79
2022/12/20 11:23:01;;;;;;;16.80;2.20;;;9.00;99.90;;;;;;5011308;28;20054;-79
2022/12/20 11:26:12;;;;;;;22.13;1.88;;;11.70;99.90;;;;;;5012892;28;20108;-79
2022/12/20 11:29:54;;;;;;;15.20;2.55;;;9.10;99.90;;;;;;5025295;28;20349;-78
2022/12/20 11:33:11;;;;;;;16.38;2.00;;;9.10;99.90;;;;;;5020962;28;20041;-77
2022/12/20 11:43:52;;;;;;;;;;;;;;;;;;;;;
2022/12/20 11:47:32;;;;;;;22.67;2.77;;;9.20;99.90;;;;;;5012459;28;20069;-78
2022/12/20 11:51:37;;;;;;;22.95;2.60;;;11.00;99.90;;;;;;5009469;28;20286;-80
2022/12/20 11:55:29;;;;;;;;;;;;;;;;;;;;;
2022/12/20 12:03:13;;;;;;;21.67;2.58;;;10.10;99.90;;;;;;5021690;28;20054;-80
2022/12/20 12:07:05;;;;;;;27.77;2.90;;;9.40;99.90;;;;;;5006355;28;20042;-80
2022/12/20 12:10:39;;;;;;;23.88;2.75;;;9.80;99.90;;;;;;4936390;29;20056;-80
2022/12/20 12:18:18;;;;;;;16.23;2.45;;;9.60;99.90;;;;;;4926348;29;20059;-80
2022/12/20 12:21:49;;;;;;;22.23;2.92;;;9.40;99.90;;;;;;4919875;29;20383;-80
2022/12/20 12:30:32;;;;;;;;;;;;;;;;;;;;;
2022/12/20 12:33:35;;;;;;;27.20;3.40;;;10.00;99.90;;;;;;4896681;29;20052;-80
2022/12/20 12:40:38;;;;;;;31.80;3.65;;;8.50;99.90;;;;;;4895661;29;20499;-80
2022/12/20 12:53:08;;;;;;;26.85;3.28;;;9.60;99.90;;;;;;4932682;29;20059;-80
2022/12/20 12:56:43;;;;;;;32.25;3.45;;;9.50;99.90;;;;;;4922401;29;20062;-79
2022/12/20 13:00:53;;;;;;;;;;;;;;;;;;;;;
2022/12/20 13:05:12;;;;;;;27.98;3.42;;;11.60;99.90;;;;;;4961809;28;20043;-79
2022/12/20 13:15:35;;;;;;;25.23;3.45;;;8.60;99.90;;;;;;4989149;28;20035;-80
2022/12/20 13:19:05;;;;;;;28.33;3.75;;;8.70;99.90;;;;;;4993133;28;20074;-80
2022/12/20 13:23:16;;;;;;;25.23;3.58;;;11.20;99.90;;;;;;4972090;28;20485;-80
2022/12/20 13:27:24;;;;;;;27.00;4.30;;;9.50;99.90;;;;;;5002598;28;20045;-80
2022/12/20 13:30:44;;;;;;;25.50;3.40;;;9.60;99.90;;;;;;5002106;28;20451;-79
2022/12/20 13:33:55;;;;;;;24.55;3.03;;;9.70;99.90;;;;;;5049103;28;20068;-80
2022/12/20 13:36:57;;;;;;;28.52;3.88;;;9.70;99.90;;;;;;5054322;28;20045;-80
2022/12/20 13:40:31;;;;;;;36.65;5.10;;;10.90;99.90;;;;;;5001623;28;20060;-77
2022/12/20 13:43:22;;;;;;;23.63;3.13;;;8.90;99.90;;;;;;5020739;28;20056;-80
2022/12/20 13:47:32;;;;;;;26.77;3.42;;;9.80;99.90;;;;;;4999375;28;20160;-79
2022/12/20 13:50:51;;;;;;;32.90;4.32;;;9.80;99.90;;;;;;5032018;28;20392;-79
2022/12/20 13:57:35;;;;;;;25.73;5.82;;;9.80;99.90;;;;;;4933541;29;20071;-79
2022/12/20 14:01:04;;;;;;;30.60;4.97;;;9.50;99.90;;;;;;4922242;29;20070;-79
2022/12/20 14:04:49;;;;;;;29.40;3.83;;;9.50;99.90;;;;;;4935109;29;20062;-80
2022/12/20 14:08:32;;;;;;;;;;;;;;;;;;;;;
2022/12/20 14:18:55;;;;;;;29.50;3.53;;;9.60;99.90;;;;;;5037667;28;20061;-80
2022/12/20 14:26:43;;;;;;;28.50;4.28;;;8.20;99.90;;;;;;4971866;28;20065;-78
2022/12/20 14:30:24;;;;;;;27.70;3.75;;;10.40;99.90;;;;;;4959636;28;20077;-77
2022/12/20 14:34:04;;;;;;;27.95;4.30;;;11.00;99.90;;;;;;4966346;28;20051;-77
2022/12/20 14:37:50;;;;;;;;;;;;;;;;;;;;;
2022/12/20 14:45:48;;;;;;;28.73;3.80;;;9.20;99.90;;;;;;4943437;28;20053;-78
2022/12/20 14:48:42;;;;;;;28.38;4.22;;;9.30;99.90;;;;;;4957716;28;20046;-78
2022/12/20 14:52:36;;;;;;;32.30;4.32;;;9.30;99.90;;;;;;4981816;28;20058;-79
2022/12/20 14:56:54;;;;;;;33.30;4.55;;;8.60;99.90;;;;;;5018449;28;20057;-79
2022/12/20 15:08:36;;;;;;;29.90;4.47;;;8.70;99.90;;;;;;4981560;28;20060;-80
2022/12/20 15:12:51;;;;;;;32.92;4.50;;;8.70;99.90;;;;;;4952020;28;20043;-80
2022/12/20 15:16:39;;;;;;;32.88;4.68;;;9.90;99.90;;;;;;4940085;29;20050;-80
2022/12/20 15:20:11;;;;;;;34.40;4.68;;;8.40;99.90;;;;;;4943469;29;20383;-79
2022/12/20 15:23:47;;;;;;;;;;;;;;;;;;;;;
2022/12/20 15:27:03;;;;;;;30.23;4.03;;;11.20;99.90;;;;;;4919547;29;20353;-80
2022/12/20 15:31:03;;;;;;;;;;;;;;;;;;;;;
2022/12/20 15:38:37;;;;;;;33.20;4.07;;;8.00;99.90;;;;;;4908408;28;20047;-79
2022/12/20 15:41:44;;;;;;;28.95;3.80;;;6.30;99.90;;;;;;4934549;29;20525;-79
2022/12/20 15:45:06;;;;;;;;;;;;;;;;;;;;;
2022/12/20 15:52:10;;;;;;;;;;;;;;;;;;;;;
2022/12/20 15:55:40;;;;;;;41.35;4.35;;;7.40;99.90;;;;;;4937759;29;20060;-79
2022/12/20 15:59:01;;;;;;;34.55;4.35;;;6.50;99.90;;;;;;4943659;28;20046;-80